Time;durP1;ratioP1;P1;durP2;ratioP2;P2;SDS_P1;SDS_P2;PMS_P1;PMS_P2;Temp;Humidity;BMP_temperature;BMP_pressure;BME280_temperature;BME280_humidity;BME280_pressure;Samples;Min_cycle;Max_cycle;Signal;HPM_P1;HPM_P2
2022/04/15 03:01:50;;;;;;;0.70;0.60;;;17.40;67.50;;;;;;5451163;23;21012;-71
2022/04/15 03:04:17;;;;;;;0.70;0.70;;;17.40;67.60;;;;;;4939296;29;20447;-72
2022/04/15 03:06:43;;;;;;;0.70;0.63;;;17.40;67.60;;;;;;4939239;29;20443;-71
2022/04/15 03:09:10;;;;;;;0.70;0.70;;;17.30;67.60;;;;;;4938831;29;20950;-71
2022/04/15 03:11:38;;;;;;;1.00;0.70;;;17.30;67.70;;;;;;4938807;29;20986;-72
2022/04/15 03:14:06;;;;;;;0.70;0.70;;;17.30;67.80;;;;;;4939145;29;20455;-72
2022/04/15 03:16:33;;;;;;;0.80;0.73;;;17.30;67.50;;;;;;4940096;29;20975;-71
2022/04/15 03:19:01;;;;;;;0.70;0.63;;;17.30;67.70;;;;;;4938839;29;20484;-72
2022/04/15 03:21:28;;;;;;;0.63;0.60;;;17.30;67.80;;;;;;4938996;29;20488;-72
2022/04/15 03:23:54;;;;;;;0.70;0.70;;;17.30;67.80;;;;;;4939017;29;20483;-72
2022/04/15 03:26:22;;;;;;;0.67;0.60;;;17.30;67.80;;;;;;4938635;29;21010;-72
2022/04/15 03:28:49;;;;;;;0.70;0.60;;;17.20;67.80;;;;;;4938820;29;20447;-72
2022/04/15 03:31:15;;;;;;;0.60;0.60;;;17.30;67.80;;;;;;4938666;29;20467;-72
2022/04/15 03:33:42;;;;;;;0.70;0.63;;;17.20;67.80;;;;;;4938746;29;20451;-72
2022/04/15 03:36:10;;;;;;;0.60;0.50;;;17.20;67.80;;;;;;4938484;29;20484;-73
2022/04/15 03:38:37;;;;;;;0.80;0.60;;;17.20;67.70;;;;;;4938423;29;20542;-72
2022/04/15 03:41:03;;;;;;;0.70;0.60;;;17.20;67.70;;;;;;4938477;29;20490;-71
2022/04/15 03:43:30;;;;;;;0.67;0.60;;;17.20;67.70;;;;;;4938613;29;20448;-72
2022/04/15 03:45:57;;;;;;;0.60;0.60;;;17.10;67.90;;;;;;4938492;29;20530;-72
2022/04/15 03:48:25;;;;;;;0.90;0.90;;;17.10;67.80;;;;;;4938397;29;20533;-72
2022/04/15 03:50:52;;;;;;;0.60;0.53;;;17.10;67.70;;;;;;4938307;29;20526;-71
2022/04/15 03:53:21;;;;;;;0.70;0.67;;;17.00;67.80;;;;;;4938184;29;20451;-72
2022/04/15 03:55:47;;;;;;;0.80;0.80;;;17.00;67.80;;;;;;4938253;29;20455;-72
2022/04/15 03:58:16;;;;;;;0.67;0.60;;;17.00;67.80;;;;;;4938227;29;20903;-72
2022/04/15 04:00:43;;;;;;;0.80;0.60;;;17.00;67.70;;;;;;4938074;29;20480;-71
2022/04/15 04:03:10;;;;;;;1.00;0.80;;;17.00;67.80;;;;;;4938234;29;20436;-71
2022/04/15 04:05:36;;;;;;;0.70;0.70;;;16.90;67.80;;;;;;4938141;29;20448;-71
2022/04/15 04:08:03;;;;;;;0.70;0.60;;;16.90;67.80;;;;;;4936962;29;20929;-72
2022/04/15 04:10:33;;;;;;;0.87;0.70;;;16.80;67.80;;;;;;4937941;29;20458;-71
2022/04/15 04:13:00;;;;;;;0.90;0.80;;;16.80;67.90;;;;;;4938040;29;20456;-71
2022/04/15 04:15:27;;;;;;;0.70;0.60;;;16.70;67.90;;;;;;4938427;29;20499;-71
2022/04/15 04:17:55;;;;;;;0.70;0.60;;;16.70;68.00;;;;;;4938161;29;20456;-71
2022/04/15 04:20:22;;;;;;;0.67;0.60;;;16.60;68.20;;;;;;4938042;29;20597;-71
2022/04/15 04:22:49;;;;;;;0.70;0.60;;;16.60;68.20;;;;;;4937669;29;21028;-71
2022/04/15 04:25:16;;;;;;;0.70;0.70;;;16.50;68.10;;;;;;4937885;29;20452;-71
2022/04/15 04:27:44;;;;;;;0.70;0.60;;;16.50;68.30;;;;;;4937851;29;20499;-72
2022/04/15 04:30:13;;;;;;;0.70;0.60;;;16.50;68.40;;;;;;4937949;29;20448;-72
2022/04/15 04:32:40;;;;;;;0.70;0.70;;;16.40;68.60;;;;;;4937675;29;20471;-71
2022/04/15 04:35:07;;;;;;;0.70;0.60;;;16.40;68.70;;;;;;4937743;29;20519;-71
2022/04/15 04:37:34;;;;;;;0.70;0.60;;;16.30;68.80;;;;;;4937621;29;20452;-72
2022/04/15 04:40:01;;;;;;;0.80;0.70;;;16.30;69.00;;;;;;4937568;29;20562;-71
2022/04/15 04:42:28;;;;;;;0.90;0.70;;;16.20;69.00;;;;;;4937219;29;20887;-70
2022/04/15 04:44:56;;;;;;;0.70;0.67;;;16.20;69.10;;;;;;4937560;29;20452;-71
2022/04/15 04:47:23;;;;;;;0.70;0.70;;;16.20;69.20;;;;;;4937456;29;20511;-71
2022/04/15 04:49:50;;;;;;;0.70;0.70;;;16.10;69.20;;;;;;4937495;29;20499;-71
2022/04/15 04:52:17;;;;;;;0.80;0.70;;;16.10;69.20;;;;;;4937428;29;20563;-71
2022/04/15 04:54:44;;;;;;;0.70;0.70;;;16.10;69.20;;;;;;4937393;29;20449;-70
2022/04/15 04:57:10;;;;;;;0.70;0.60;;;16.10;69.20;;;;;;4937312;29;20484;-70
2022/04/15 04:59:37;;;;;;;0.80;0.73;;;16.10;69.30;;;;;;4937495;29;20484;-72
2022/04/15 05:02:05;;;;;;;1.00;0.77;;;16.10;69.30;;;;;;4936929;29;20543;-71
2022/04/15 05:04:32;;;;;;;0.93;0.70;;;16.20;69.30;;;;;;4936887;29;20448;-71
2022/04/15 05:06:58;;;;;;;0.70;0.60;;;16.10;69.40;;;;;;4937153;29;20506;-72
2022/04/15 05:09:25;;;;;;;0.70;0.60;;;16.20;69.40;;;;;;4937706;29;20440;-71
2022/04/15 05:11:52;;;;;;;0.70;0.70;;;16.30;69.30;;;;;;4937457;29;20471;-71
2022/04/15 05:14:19;;;;;;;0.70;0.70;;;16.30;69.20;;;;;;4937153;29;20459;-72
2022/04/15 05:16:45;;;;;;;0.70;0.70;;;16.40;69.10;;;;;;4936910;29;20460;-71
2022/04/15 05:19:14;;;;;;;0.70;0.70;;;16.40;69.20;;;;;;4936426;29;21002;-71
2022/04/15 05:21:40;;;;;;;0.70;0.63;;;16.50;69.10;;;;;;4936497;29;20978;-72
2022/04/15 05:24:08;;;;;;;0.80;0.70;;;16.50;69.00;;;;;;4936592;29;20870;-71
2022/04/15 05:26:36;;;;;;;0.63;0.60;;;16.60;69.00;;;;;;4936752;29;20503;-71
2022/04/15 05:29:03;;;;;;;0.80;0.70;;;16.70;68.80;;;;;;4936767;29;20500;-71
2022/04/15 05:31:30;;;;;;;0.70;0.70;;;16.70;68.90;;;;;;4936299;29;20472;-71
2022/04/15 05:33:57;;;;;;;0.70;0.70;;;16.90;68.90;;;;;;4936521;29;20451;-71
2022/04/15 05:36:25;;;;;;;0.70;0.70;;;17.00;68.50;;;;;;4937265;29;20503;-71
2022/04/15 05:38:52;;;;;;;0.70;0.60;;;17.10;68.20;;;;;;4936295;29;20484;-71
2022/04/15 05:41:18;;;;;;;0.70;0.70;;;17.20;67.90;;;;;;4936472;29;20467;-71
2022/04/15 05:43:46;;;;;;;0.70;0.60;;;17.30;67.70;;;;;;4936659;29;20878;-71
2022/04/15 05:46:13;;;;;;;0.70;0.70;;;17.40;67.30;;;;;;4936620;29;20459;-71
2022/04/15 05:48:40;;;;;;;1.20;0.80;;;17.60;66.90;;;;;;4936507;29;20503;-71
2022/04/15 05:51:06;;;;;;;0.70;0.63;;;17.70;66.30;;;;;;4936335;29;20475;-71
2022/04/15 05:53:34;;;;;;;0.80;0.80;;;17.80;66.50;;;;;;4936434;29;20526;-71
2022/04/15 05:56:01;;;;;;;0.80;0.70;;;18.00;66.60;;;;;;4936408;29;20460;-71
2022/04/15 05:58:28;;;;;;;0.70;0.70;;;18.20;66.00;;;;;;4936321;29;20807;-72
2022/04/15 06:00:55;;;;;;;0.80;0.77;;;18.40;65.60;;;;;;4936888;29;20480;-71
2022/04/15 06:03:22;;;;;;;0.70;0.70;;;18.60;65.70;;;;;;4936943;29;20440;-71
2022/04/15 06:05:49;;;;;;;0.77;0.77;;;18.40;65.30;;;;;;4935698;29;20867;-71
2022/04/15 06:08:17;;;;;;;0.80;0.80;;;18.50;65.80;;;;;;4936047;29;20507;-71
2022/04/15 06:10:45;;;;;;;0.90;0.90;;;18.90;66.00;;;;;;4935939;29;20464;-71
2022/04/15 06:13:14;;;;;;;0.90;0.90;;;19.20;64.70;;;;;;4935972;29;20448;-71
2022/04/15 06:15:51;;;;;;;0.90;0.77;;;19.50;63.40;;;;;;4936126;29;20487;-71
2022/04/15 06:18:18;;;;;;;0.97;0.87;;;19.70;63.10;;;;;;4935874;29;20439;-72
2022/04/15 06:20:45;;;;;;;0.80;0.80;;;20.10;62.00;;;;;;4935910;29;20491;-71
2022/04/15 06:23:11;;;;;;;0.90;0.90;;;20.40;61.10;;;;;;4935789;29;20460;-72
2022/04/15 06:25:38;;;;;;;1.10;1.00;;;20.90;60.50;;;;;;4935918;29;20877;-72
2022/04/15 06:28:06;;;;;;;1.53;0.90;;;21.40;60.30;;;;;;4935961;29;20460;-72
2022/04/15 06:30:33;;;;;;;0.97;0.97;;;21.90;58.30;;;;;;4935473;29;20440;-72
2022/04/15 06:33:00;;;;;;;1.00;1.00;;;22.20;57.30;;;;;;4935547;29;20448;-72
2022/04/15 06:35:27;;;;;;;0.80;0.80;;;22.40;56.60;;;;;;4937044;29;20866;-72
2022/04/15 06:37:53;;;;;;;1.10;1.10;;;22.60;56.40;;;;;;4935676;29;20526;-72
2022/04/15 06:40:20;;;;;;;0.90;0.90;;;22.80;55.10;;;;;;4935567;29;20492;-72
2022/04/15 06:42:47;;;;;;;0.90;0.90;;;23.10;54.30;;;;;;4935651;29;20531;-72
2022/04/15 06:45:15;;;;;;;0.90;0.90;;;23.40;53.80;;;;;;4935724;29;20517;-72
2022/04/15 06:47:41;;;;;;;1.53;1.00;;;23.70;53.30;;;;;;4935794;29;20495;-72
2022/04/15 06:50:09;;;;;;;0.90;0.90;;;24.10;53.00;;;;;;4935561;29;20940;-72
2022/04/15 06:52:36;;;;;;;0.90;0.90;;;24.30;52.60;;;;;;4935888;29;20519;-72
2022/04/15 06:55:03;;;;;;;1.00;1.00;;;24.60;51.90;;;;;;4935921;29;20447;-72
2022/04/15 06:57:31;;;;;;;0.80;0.80;;;24.50;51.60;;;;;;4935909;29;20511;-72
2022/04/15 06:59:58;;;;;;;1.20;1.10;;;24.20;52.10;;;;;;4936122;29;20488;-73
2022/04/15 07:02:26;;;;;;;1.10;1.10;;;23.90;52.30;;;;;;4935653;29;20938;-72
2022/04/15 07:04:53;;;;;;;1.10;1.10;;;23.50;53.70;;;;;;4935914;29;20456;-72
2022/04/15 07:07:19;;;;;;;1.10;1.10;;;23.40;54.10;;;;;;4936626;29;20472;-72
2022/04/15 07:09:46;;;;;;;1.00;0.97;;;23.20;53.20;;;;;;4935377;29;20938;-72
2022/04/15 07:12:13;;;;;;;1.00;1.00;;;23.10;53.90;;;;;;4937076;29;20507;-71
2022/04/15 07:14:39;;;;;;;1.00;1.00;;;23.10;54.80;;;;;;4935479;29;20451;-72
2022/04/15 07:17:06;;;;;;;1.20;1.10;;;23.00;54.30;;;;;;4935652;29;20451;-72
2022/04/15 07:19:34;;;;;;;0.97;0.97;;;23.10;54.50;;;;;;4935128;29;20486;-72
2022/04/15 07:22:01;;;;;;;1.07;1.00;;;23.00;54.60;;;;;;4935531;29;20472;-72
2022/04/15 07:24:30;;;;;;;1.30;1.20;;;23.10;54.20;;;;;;4935357;29;20452;-72
2022/04/15 07:26:57;;;;;;;1.00;1.00;;;23.10;53.60;;;;;;4935165;29;20538;-72
2022/04/15 07:29:26;;;;;;;1.20;1.10;;;23.10;53.90;;;;;;4935084;29;20887;-72
2022/04/15 07:31:52;;;;;;;1.00;1.00;;;23.10;53.00;;;;;;4935216;29;20468;-72
2022/04/15 07:34:19;;;;;;;1.10;1.10;;;22.90;54.00;;;;;;4935288;29;20452;-71
2022/04/15 07:36:53;;;;;;;1.30;1.20;;;22.70;55.40;;;;;;4935241;29;20857;-72
2022/04/15 07:39:21;;;;;;;1.10;1.10;;;22.90;55.00;;;;;;4935224;29;20477;-71
2022/04/15 07:41:47;;;;;;;1.13;1.13;;;22.70;55.10;;;;;;4935268;29;20655;-71
2022/04/15 07:44:15;;;;;;;0.90;0.90;;;22.00;56.60;;;;;;4936959;29;20936;-72
2022/04/15 07:46:44;;;;;;;1.10;1.10;;;22.20;56.30;;;;;;4938262;29;20958;-72
2022/04/15 07:49:11;;;;;;;1.23;1.13;;;22.50;55.30;;;;;;4938796;29;20451;-72
2022/04/15 07:51:39;;;;;;;1.30;1.20;;;22.80;55.70;;;;;;4938632;29;20845;-72
2022/04/15 07:54:08;;;;;;;1.23;1.17;;;23.00;54.80;;;;;;4938559;29;20452;-72
2022/04/15 07:56:35;;;;;;;1.10;1.10;;;23.30;53.00;;;;;;4938580;29;20947;-72
2022/04/15 07:59:03;;;;;;;1.10;1.10;;;23.40;52.70;;;;;;4938592;29;20447;-72
2022/04/15 08:01:30;;;;;;;1.10;1.10;;;23.60;52.90;;;;;;4938409;29;20542;-72
2022/04/15 08:03:58;;;;;;;1.20;1.20;;;23.70;52.30;;;;;;4938388;29;20448;-71
2022/04/15 08:06:26;;;;;;;1.23;1.20;;;23.90;51.80;;;;;;4938467;29;20503;-72
2022/04/15 08:08:54;;;;;;;0.87;0.87;;;24.10;51.60;;;;;;4938633;29;20448;-71
2022/04/15 08:11:22;;;;;;;1.00;1.00;;;24.20;51.80;;;;;;4938337;29;20496;-72
2022/04/15 08:13:49;;;;;;;0.83;0.83;;;24.40;52.30;;;;;;4938215;29;20456;-72
2022/04/15 08:16:16;;;;;;;1.00;1.00;;;24.20;52.70;;;;;;4938073;29;20514;-71
2022/04/15 08:18:43;;;;;;;1.10;1.10;;;24.30;51.40;;;;;;4937787;29;20948;-72
2022/04/15 08:21:10;;;;;;;1.30;1.27;;;23.80;51.80;;;;;;4937928;29;20491;-72
2022/04/15 08:23:37;;;;;;;1.10;1.10;;;23.00;52.00;;;;;;4938054;29;20577;-72
2022/04/15 08:26:04;;;;;;;1.30;1.20;;;22.50;54.70;;;;;;4937994;29;20531;-71
2022/04/15 08:28:31;;;;;;;1.20;1.20;;;22.20;54.90;;;;;;4937922;29;20507;-72
2022/04/15 08:30:58;;;;;;;1.37;1.27;;;22.20;54.40;;;;;;4937709;29;20464;-72
2022/04/15 08:33:25;;;;;;;1.10;1.10;;;21.90;56.10;;;;;;4937783;29;20507;-72
2022/04/15 08:35:52;;;;;;;1.30;1.20;;;22.20;56.10;;;;;;4938383;29;20447;-72
2022/04/15 08:38:18;;;;;;;1.33;1.23;;;22.20;55.40;;;;;;4938118;29;20483;-72
2022/04/15 08:40:49;;;;;;;0.93;0.93;;;22.10;54.50;;;;;;4937479;29;20491;-72
2022/04/15 08:43:16;;;;;;;1.00;1.00;;;22.60;54.40;;;;;;4937687;29;20455;-72
2022/04/15 08:45:47;;;;;;;1.30;1.20;;;22.70;53.90;;;;;;4937543;29;20459;-72
2022/04/15 08:48:14;;;;;;;1.20;1.20;;;22.70;54.70;;;;;;4937453;29;20444;-72
2022/04/15 08:50:41;;;;;;;1.53;1.43;;;23.10;53.10;;;;;;4938405;29;20460;-72
2022/04/15 08:53:09;;;;;;;1.20;1.20;;;23.20;52.30;;;;;;4937509;29;20484;-72
2022/04/15 08:55:36;;;;;;;1.30;1.20;;;23.10;53.20;;;;;;4936690;29;20479;-72
2022/04/15 08:58:03;;;;;;;1.10;1.10;;;22.60;53.60;;;;;;4937058;29;20500;-73
2022/04/15 09:00:30;;;;;;;1.10;1.10;;;22.00;54.40;;;;;;4937088;29;20487;-72
2022/04/15 09:02:58;;;;;;;1.33;1.23;;;21.60;53.90;;;;;;4937161;29;20471;-72
2022/04/15 09:05:26;;;;;;;1.03;1.03;;;21.50;54.70;;;;;;4937076;29;20447;-72
2022/04/15 09:08:04;;;;;;;1.17;1.17;;;21.30;56.10;;;;;;4938165;29;20459;-74
2022/04/15 09:10:31;;;;;;;1.30;1.20;;;21.40;56.80;;;;;;4936720;29;20432;-72
2022/04/15 09:12:58;;;;;;;1.10;1.10;;;21.50;55.80;;;;;;4936955;29;20551;-73
2022/04/15 09:15:24;;;;;;;1.00;1.00;;;21.60;53.10;;;;;;4937037;29;20452;-72
2022/04/15 09:17:52;;;;;;;1.40;1.30;;;21.70;53.10;;;;;;5051585;23;20555;-77
2022/04/15 09:20:21;;;;;;;1.17;1.10;;;21.70;52.00;;;;;;4939067;29;20575;-77
2022/04/15 09:22:53;;;;;;;1.00;1.00;;;21.80;52.50;;;;;;4939980;29;20460;-77
2022/04/15 09:25:25;;;;;;;1.30;1.20;;;22.10;51.80;;;;;;4938608;29;20440;-77
2022/04/15 09:27:54;;;;;;;1.20;1.20;;;22.10;52.20;;;;;;4939494;29;20476;-77
2022/04/15 09:30:32;;;;;;;0.97;0.97;;;22.40;52.90;;;;;;4938503;29;20452;-77
2022/04/15 09:33:01;;;;;;;1.03;1.03;;;22.50;51.40;;;;;;4938677;29;20499;-77
2022/04/15 09:35:29;;;;;;;1.10;1.10;;;22.60;51.70;;;;;;4937690;29;20456;-77
2022/04/15 09:37:59;;;;;;;1.20;1.20;;;22.50;51.60;;;;;;4938387;29;20468;-77
2022/04/15 09:40:26;;;;;;;1.17;1.10;;;22.60;51.40;;;;;;4945298;29;20488;-78
2022/04/15 09:42:54;;;;;;;1.30;1.20;;;22.50;51.80;;;;;;4945001;29;20943;-78
2022/04/15 09:45:23;;;;;;;1.17;1.17;;;22.40;52.60;;;;;;4943500;29;20492;-78
2022/04/15 09:47:53;;;;;;;1.20;1.20;;;22.40;51.80;;;;;;4938320;29;20479;-78
2022/04/15 09:50:26;;;;;;;0.90;0.90;;;22.50;53.10;;;;;;4937931;29;20452;-78
2022/04/15 09:52:55;;;;;;;1.03;1.03;;;22.80;51.50;;;;;;4937332;29;20547;-79
2022/04/15 09:55:24;;;;;;;1.30;1.20;;;22.90;51.40;;;;;;4937093;29;20505;-78
2022/04/15 09:57:52;;;;;;;1.23;1.17;;;22.90;51.30;;;;;;4937535;29;20574;-78
2022/04/15 10:00:20;;;;;;;1.00;1.00;;;22.80;50.40;;;;;;4936659;29;21003;-78
2022/04/15 10:02:49;;;;;;;1.00;0.90;;;22.40;51.60;;;;;;4937056;29;20480;-78
2022/04/15 10:05:20;;;;;;;1.30;1.30;;;22.30;51.80;;;;;;4936232;29;20847;-78
2022/04/15 10:07:48;;;;;;;1.03;1.03;;;22.10;53.90;;;;;;4936590;29;20480;-79
2022/04/15 10:10:17;;;;;;;1.23;1.23;;;22.10;53.50;;;;;;4937073;29;20451;-79
2022/04/15 10:12:45;;;;;;;0.90;0.90;;;21.90;51.80;;;;;;4936772;29;20456;-79
2022/04/15 10:15:12;;;;;;;1.00;1.00;;;22.20;51.80;;;;;;4936645;29;20527;-78
2022/04/15 10:17:40;;;;;;;1.00;1.00;;;22.60;50.60;;;;;;4935995;29;20483;-78
2022/04/15 10:20:08;;;;;;;0.90;0.90;;;23.00;51.20;;;;;;4936286;29;20591;-78
2022/04/15 10:22:38;;;;;;;1.00;0.90;;;23.40;49.90;;;;;;4936592;29;20452;-79
2022/04/15 10:25:06;;;;;;;0.90;0.90;;;23.50;48.60;;;;;;4936426;29;20479;-78
2022/04/15 10:27:35;;;;;;;0.80;0.80;;;23.60;50.00;;;;;;4936025;29;20975;-79
2022/04/15 10:30:04;;;;;;;0.80;0.80;;;23.80;48.10;;;;;;4936629;29;20456;-79
2022/04/15 10:32:48;;;;;;;0.90;0.90;;;24.20;46.80;;;;;;4936012;29;21003;-78
2022/04/15 10:35:24;;;;;;;0.90;0.90;;;24.30;46.70;;;;;;4936090;29;21018;-78
2022/04/15 10:37:56;;;;;;;0.90;0.90;;;24.30;47.10;;;;;;4936338;29;20475;-79
2022/04/15 10:40:25;;;;;;;1.00;1.00;;;24.00;48.10;;;;;;4936094;29;20483;-79
2022/04/15 10:42:53;;;;;;;1.00;1.00;;;23.80;48.50;;;;;;4935909;29;20871;-78
2022/04/15 10:45:27;;;;;;;1.00;1.00;;;23.50;48.00;;;;;;4935740;29;20952;-79
2022/04/15 10:48:00;;;;;;;1.10;1.10;;;23.40;49.00;;;;;;4936276;29;20475;-79
2022/04/15 10:50:29;;;;;;;0.80;0.80;;;23.40;48.10;;;;;;4936126;29;20487;-79
2022/04/15 10:53:29;;;;;;;0.87;0.87;;;23.50;48.10;;;;;;4936157;29;20531;-79
2022/04/15 10:56:07;;;;;;;0.97;0.97;;;23.50;48.20;;;;;;4936672;29;20456;-79
2022/04/15 11:01:13;;;;;;;1.00;1.00;;;23.40;49.50;;;;;;4936035;29;20491;-79
2022/04/15 11:01:49;;;;;;;0.80;0.80;;;23.50;49.10;;;;;;4938690;29;20490;-78
2022/04/15 11:04:23;;;;;;;0.80;0.80;;;23.70;48.00;;;;;;4939224;29;20432;-79
2022/04/15 11:06:49;;;;;;;1.17;1.07;;;23.90;49.30;;;;;;4939721;29;20475;-77
2022/04/15 11:09:16;;;;;;;0.73;0.73;;;23.70;49.40;;;;;;4940392;29;20451;-78
2022/04/15 11:11:45;;;;;;;1.03;1.00;;;23.40;49.00;;;;;;4940323;29;20454;-78
2022/04/15 11:14:16;;;;;;;1.00;1.00;;;23.10;49.40;;;;;;4938591;29;20936;-77
2022/04/15 11:16:46;;;;;;;1.00;1.00;;;22.90;49.20;;;;;;4939330;29;20491;-78
2022/04/15 11:19:17;;;;;;;0.80;0.80;;;22.90;49.20;;;;;;4942604;29;20437;-78
2022/04/15 11:21:53;;;;;;;0.80;0.80;;;22.70;49.80;;;;;;4943087;29;20479;-78
2022/04/15 11:24:26;;;;;;;0.80;0.80;;;22.70;50.10;;;;;;4943182;29;20443;-78
2022/04/15 11:26:58;;;;;;;0.70;0.70;;;22.60;49.00;;;;;;4943071;29;20471;-78
2022/04/15 11:29:31;;;;;;;0.87;0.87;;;22.60;50.50;;;;;;4942397;29;20440;-77
2022/04/15 11:31:59;;;;;;;0.90;0.90;;;22.70;49.20;;;;;;4940553;29;20448;-78
2022/04/15 11:34:26;;;;;;;1.23;1.13;;;23.10;50.00;;;;;;4940473;29;20447;-77
2022/04/15 11:36:56;;;;;;;0.80;0.80;;;23.20;49.30;;;;;;4940268;29;20479;-78
2022/04/15 11:39:24;;;;;;;0.70;0.70;;;23.40;47.80;;;;;;4941772;29;20489;-78
2022/04/15 11:41:53;;;;;;;0.73;0.73;;;23.40;47.00;;;;;;4939898;29;20479;-78
2022/04/15 11:44:21;;;;;;;1.00;1.00;;;23.30;48.10;;;;;;4938757;29;20491;-78
2022/04/15 11:46:51;;;;;;;0.90;0.90;;;23.60;48.00;;;;;;4938733;29;21023;-78
2022/04/15 11:49:27;;;;;;;1.00;0.90;;;23.60;46.80;;;;;;4939831;29;20451;-78
2022/04/15 11:51:55;;;;;;;0.90;0.87;;;23.80;47.70;;;;;;4939965;29;20436;-78
2022/04/15 11:54:23;;;;;;;0.80;0.80;;;23.80;46.90;;;;;;4939756;29;20451;-78
2022/04/15 11:56:54;;;;;;;0.93;0.90;;;23.70;47.30;;;;;;4939466;29;20844;-78
2022/04/15 11:59:21;;;;;;;0.80;0.80;;;23.60;46.10;;;;;;4938649;29;20895;-78
2022/04/15 12:01:49;;;;;;;0.80;0.80;;;23.40;46.70;;;;;;4938673;29;20636;-78
2022/04/15 12:04:17;;;;;;;0.80;0.80;;;23.30;45.90;;;;;;4938490;29;20795;-78
2022/04/15 12:06:44;;;;;;;0.77;0.77;;;23.10;46.90;;;;;;4938691;29;20813;-78
2022/04/15 12:09:13;;;;;;;0.87;0.80;;;23.10;46.90;;;;;;4938701;29;20448;-77
2022/04/15 12:11:40;;;;;;;0.80;0.80;;;23.20;47.90;;;;;;4938676;29;20503;-77
2022/04/15 12:14:08;;;;;;;0.87;0.87;;;23.00;48.40;;;;;;4938662;29;20456;-77
2022/04/15 12:16:36;;;;;;;0.80;0.80;;;23.20;47.40;;;;;;4938117;29;20947;-78
2022/04/15 12:19:06;;;;;;;0.90;0.90;;;23.70;48.00;;;;;;4938563;29;20447;-77
2022/04/15 12:21:34;;;;;;;0.90;0.90;;;24.20;47.40;;;;;;4939378;29;20538;-77
2022/04/15 12:24:06;;;;;;;0.80;0.80;;;24.60;46.00;;;;;;4938986;29;20447;-78
2022/04/15 12:26:47;;;;;;;0.70;0.70;;;24.90;44.30;;;;;;4941204;29;21006;-78
2022/04/15 12:32:21;;;;;;;1.00;0.87;;;25.40;44.00;;;;;;4942042;29;20416;-78
2022/04/15 12:34:51;;;;;;;0.80;0.80;;;25.40;42.80;;;;;;4941322;29;20440;-77
2022/04/15 12:37:35;;;;;;;0.80;0.80;;;25.50;42.70;;;;;;4942050;29;20495;-78
2022/04/15 12:40:04;;;;;;;0.80;0.80;;;25.70;42.90;;;;;;4942010;29;20464;-78
2022/04/15 12:42:32;;;;;;;0.80;0.70;;;25.40;42.90;;;;;;4941094;29;20483;-78
2022/04/15 12:45:00;;;;;;;0.90;0.90;;;25.40;43.50;;;;;;4942745;29;20491;-79
2022/04/15 12:47:27;;;;;;;0.80;0.80;;;25.40;43.30;;;;;;4942163;29;20471;-78
2022/04/15 12:50:15;;;;;;;0.70;0.70;;;25.40;43.40;;;;;;4942046;29;20443;-78
2022/04/15 12:52:43;;;;;;;0.80;0.80;;;25.50;43.70;;;;;;4940806;29;20436;-78
2022/04/15 12:55:10;;;;;;;0.80;0.80;;;25.50;42.20;;;;;;4940194;29;20934;-78
2022/04/15 12:57:39;;;;;;;0.80;0.80;;;25.20;42.70;;;;;;4941563;29;20566;-77
2022/04/15 13:00:08;;;;;;;0.77;0.77;;;25.00;42.70;;;;;;4940589;29;20464;-78
2022/04/15 13:02:36;;;;;;;0.70;0.70;;;25.00;43.50;;;;;;4940470;29;20491;-78
2022/04/15 13:05:06;;;;;;;0.60;0.60;;;25.10;41.80;;;;;;4943648;29;20463;-78
2022/04/15 13:07:33;;;;;;;0.80;0.80;;;24.50;41.60;;;;;;4941464;29;20483;-78
2022/04/15 13:10:00;;;;;;;0.80;0.80;;;24.10;43.40;;;;;;4941723;29;20451;-78
2022/04/15 13:12:27;;;;;;;0.80;0.80;;;24.20;44.40;;;;;;4939656;29;20462;-78
2022/04/15 13:14:54;;;;;;;0.70;0.70;;;24.10;44.70;;;;;;4938720;29;20448;-78
2022/04/15 13:17:21;;;;;;;0.87;0.87;;;24.30;45.30;;;;;;4937169;29;20519;-78
2022/04/15 13:19:48;;;;;;;0.97;0.97;;;24.40;47.10;;;;;;4937622;29;20455;-77
2022/04/15 13:22:17;;;;;;;0.80;0.80;;;24.60;45.90;;;;;;4937708;29;20570;-78
2022/04/15 13:24:44;;;;;;;0.80;0.80;;;24.70;46.00;;;;;;4955982;29;20432;-77
2022/04/15 13:27:11;;;;;;;0.70;0.70;;;24.90;44.60;;;;;;4962044;29;20479;-78
2022/04/15 13:29:38;;;;;;;0.70;0.70;;;25.00;44.10;;;;;;4962313;29;20480;-77
2022/04/15 13:32:07;;;;;;;0.80;0.80;;;24.90;43.60;;;;;;4953348;29;20455;-78
2022/04/15 13:34:34;;;;;;;0.80;0.80;;;25.10;44.50;;;;;;4942879;29;20522;-79
2022/04/15 13:37:01;;;;;;;0.80;0.70;;;25.20;42.70;;;;;;4941387;29;20471;-78
2022/04/15 13:39:30;;;;;;;0.70;0.70;;;25.40;43.60;;;;;;4939614;29;20542;-79
2022/04/15 13:42:01;;;;;;;0.80;0.80;;;25.30;42.80;;;;;;4938721;29;20495;-79
2022/04/15 13:44:28;;;;;;;0.70;0.63;;;25.10;42.60;;;;;;4938986;29;20455;-79
2022/04/15 13:46:54;;;;;;;0.80;0.80;;;25.10;43.40;;;;;;4938818;29;20479;-78
2022/04/15 13:49:21;;;;;;;0.70;0.70;;;25.20;43.60;;;;;;4938922;29;20928;-78
2022/04/15 13:51:48;;;;;;;0.80;0.80;;;25.20;43.80;;;;;;4939475;29;20456;-79
2022/04/15 13:57:01;;;;;;;0.70;0.70;;;24.90;43.50;;;;;;4938632;29;20818;-78
2022/04/15 13:59:28;;;;;;;0.87;0.87;;;24.40;44.60;;;;;;4938298;29;21007;-78
2022/04/15 14:01:54;;;;;;;0.80;0.80;;;24.10;45.50;;;;;;4938989;29;20994;-78
2022/04/15 14:04:21;;;;;;;0.90;0.90;;;23.70;46.40;;;;;;4940534;29;20455;-78
2022/04/15 14:06:49;;;;;;;0.77;0.77;;;23.60;46.30;;;;;;4940357;29;20527;-78
2022/04/15 14:09:17;;;;;;;0.80;0.80;;;23.70;46.70;;;;;;4938783;29;20542;-78
2022/04/15 14:11:45;;;;;;;0.70;0.70;;;23.70;45.80;;;;;;4937792;29;20448;-78
2022/04/15 14:14:15;;;;;;;0.80;0.80;;;23.80;45.50;;;;;;4937509;29;20451;-78
2022/04/15 14:16:42;;;;;;;0.80;0.80;;;23.70;45.90;;;;;;4938864;29;20490;-78
2022/04/15 14:19:11;;;;;;;0.70;0.70;;;23.70;45.70;;;;;;4939207;29;20472;-78
2022/04/15 14:21:39;;;;;;;0.80;0.70;;;23.60;46.00;;;;;;4939259;29;20863;-78
2022/04/15 14:24:06;;;;;;;0.90;0.90;;;23.50;46.60;;;;;;4938433;29;20487;-77
2022/04/15 14:26:33;;;;;;;0.80;0.80;;;23.40;47.30;;;;;;4938992;29;20527;-78
2022/04/15 14:29:01;;;;;;;0.90;0.90;;;23.40;48.00;;;;;;4938787;29;20452;-78
2022/04/15 14:31:29;;;;;;;0.80;0.80;;;23.70;46.70;;;;;;4939330;29;20496;-78
2022/04/15 14:33:56;;;;;;;0.80;0.80;;;23.90;46.40;;;;;;4937856;29;20503;-78
2022/04/15 14:36:23;;;;;;;0.80;0.80;;;24.10;46.50;;;;;;4939466;29;20513;-78
2022/04/15 14:38:50;;;;;;;0.70;0.60;;;24.10;46.30;;;;;;4938553;29;20523;-78
2022/04/15 14:41:16;;;;;;;0.80;0.73;;;24.30;45.40;;;;;;4938900;29;20487;-78
2022/04/15 14:43:43;;;;;;;0.80;0.80;;;24.50;46.30;;;;;;4940364;29;20462;-79
2022/04/15 14:46:11;;;;;;;0.80;0.80;;;24.70;44.40;;;;;;4938514;29;20472;-78
2022/04/15 14:48:39;;;;;;;0.80;0.80;;;25.20;44.90;;;;;;4940197;29;20463;-78
2022/04/15 14:51:06;;;;;;;0.80;0.80;;;25.50;42.90;;;;;;4938462;29;20834;-79
2022/04/15 14:53:34;;;;;;;0.70;0.70;;;26.10;42.60;;;;;;4940299;29;20515;-79
2022/04/15 14:56:01;;;;;;;0.93;0.80;;;26.60;42.00;;;;;;4940833;29;20514;-79
2022/04/15 14:58:28;;;;;;;0.77;0.77;;;26.90;40.60;;;;;;4940667;29;20448;-79
2022/04/15 15:00:55;;;;;;;0.90;0.70;;;27.20;40.80;;;;;;4940437;29;20460;-79
2022/04/15 15:03:23;;;;;;;0.90;0.80;;;28.00;38.30;;;;;;4940348;29;20483;-78
2022/04/15 15:05:53;;;;;;;0.70;0.70;;;29.00;37.60;;;;;;4940193;29;20459;-78
2022/04/15 15:08:20;;;;;;;0.77;0.70;;;29.80;36.40;;;;;;4941187;29;20503;-79
2022/04/15 15:10:48;;;;;;;1.10;0.70;;;31.20;34.90;;;;;;4940493;29;20550;-79
2022/04/15 15:13:15;;;;;;;0.70;0.70;;;32.30;33.40;;;;;;4940081;29;20939;-79
2022/04/15 15:15:42;;;;;;;0.70;0.70;;;32.90;32.50;;;;;;4940484;29;20473;-79
2022/04/15 15:18:08;;;;;;;0.70;0.70;;;33.30;31.30;;;;;;5036266;23;20491;-74
2022/04/15 15:20:35;;;;;;;0.60;0.60;;;33.70;31.10;;;;;;4938498;29;20873;-75
2022/04/15 15:23:03;;;;;;;0.90;0.80;;;33.70;31.20;;;;;;4938718;29;20534;-74
2022/04/15 15:30:58;;;;;;;0.70;0.60;;;32.40;31.50;;;;;;4939197;29;20458;-74
2022/04/15 15:33:26;;;;;;;0.70;0.70;;;31.70;32.90;;;;;;4938684;29;20499;-74
2022/04/15 15:35:54;;;;;;;0.70;0.60;;;31.10;33.30;;;;;;4938722;29;20457;-74
2022/04/15 15:38:24;;;;;;;1.20;0.80;;;29.90;34.40;;;;;;4938189;29;20879;-73
2022/04/15 15:40:52;;;;;;;1.20;0.60;;;29.40;35.40;;;;;;4938522;29;20523;-73
2022/04/15 15:43:19;;;;;;;1.00;0.70;;;28.50;36.20;;;;;;4938448;29;20488;-74
2022/04/15 15:45:46;;;;;;;0.70;0.57;;;27.70;36.40;;;;;;4938473;29;20451;-73
2022/04/15 15:48:13;;;;;;;0.70;0.70;;;26.80;37.40;;;;;;4938378;29;20539;-73
2022/04/15 15:50:41;;;;;;;0.70;0.60;;;26.10;38.50;;;;;;4938368;29;20510;-73
2022/04/15 15:53:08;;;;;;;0.67;0.60;;;25.60;39.50;;;;;;4938257;29;20539;-72
2022/04/15 15:55:36;;;;;;;0.70;0.70;;;25.00;40.10;;;;;;4938544;29;20452;-73
2022/04/15 15:58:03;;;;;;;0.70;0.60;;;24.40;40.40;;;;;;4938326;29;20522;-73
2022/04/15 16:00:30;;;;;;;0.80;0.60;;;24.00;40.90;;;;;;4938526;29;20452;-74
2022/04/15 16:02:56;;;;;;;0.70;0.60;;;23.70;41.20;;;;;;4938549;29;20483;-73
2022/04/15 16:05:23;;;;;;;0.70;0.60;;;23.40;41.10;;;;;;4937231;29;20518;-73